sensor_id;sensor_type;location;lat;lon;timestamp;pressure;altitude;pressure_sealevel;temperature;humidity
38852;BME280;24605;50.092;9.182;2024-01-30T00:00:04;152774.41;;;2.82;100.00
38852;BME280;24605;50.092;9.182;2024-01-30T00:02:31;152756.25;;;2.75;100.00
38852;BME280;24605;50.092;9.182;2024-01-30T00:04:58;152740.69;;;2.69;100.00
38852;BME280;24605;50.092;9.182;2024-01-30T00:07:26;152725.16;;;2.62;100.00
38852;BME280;24605;50.092;9.182;2024-01-30T00:09:53;152690.19;;;2.48;100.00
38852;BME280;24605;50.092;9.182;2024-01-30T00:12:20;152679.78;;;2.44;100.00
38852;BME280;24605;50.092;9.182;2024-01-30T00:14:46;152668.13;;;2.40;100.00
38852;BME280;24605;50.092;9.182;2024-01-30T00:17:13;152665.53;;;2.39;100.00
38852;BME280;24605;50.092;9.182;2024-01-30T00:19:40;152652.59;;;2.33;100.00
38852;BME280;24605;50.092;9.182;2024-01-30T00:22:06;152684.97;;;2.46;100.00
38852;BME280;24605;50.092;9.182;2024-01-30T00:24:34;152656.47;;;2.35;100.00
38852;BME280;24605;50.092;9.182;2024-01-30T00:27:01;152655.19;;;2.34;100.00
38852;BME280;24605;50.092;9.182;2024-01-30T00:29:27;152646.13;;;2.31;100.00
38852;BME280;24605;50.092;9.182;2024-01-30T00:31:56;152639.66;;;2.28;100.00
38852;BME280;24605;50.092;9.182;2024-01-30T00:34:22;152666.84;;;2.39;100.00
38852;BME280;24605;50.092;9.182;2024-01-30T00:36:49;152644.81;;;2.30;100.00
38852;BME280;24605;50.092;9.182;2024-01-30T00:39:15;152634.47;;;2.26;100.00
38852;BME280;24605;50.092;9.182;2024-01-30T00:41:43;152616.34;;;2.19;100.00
38852;BME280;24605;50.092;9.182;2024-01-30T00:44:10;152612.44;;;2.17;100.00
38852;BME280;24605;50.092;9.182;2024-01-30T00:46:36;152599.50;;;2.12;100.00
38852;BME280;24605;50.092;9.182;2024-01-30T00:49:02;152595.63;;;2.11;100.00
38852;BME280;24605;50.092;9.182;2024-01-30T00:51:29;152655.19;;;2.34;100.00
38852;BME280;24605;50.092;9.182;2024-01-30T00:53:55;152674.66;;;2.42;100.00
38852;BME280;24605;50.092;9.182;2024-01-30T00:56:22;152650.00;;;2.32;100.00
38852;BME280;24605;50.092;9.182;2024-01-30T00:58:50;152678.50;;;2.44;100.00
38852;BME280;24605;50.092;9.182;2024-01-30T01:01:17;152669.44;;;2.40;100.00
38852;BME280;24605;50.092;9.182;2024-01-30T01:03:44;152630.59;;;2.25;100.00
38852;BME280;24605;50.092;9.182;2024-01-30T01:06:10;152618.94;;;2.20;100.00
38852;BME280;24605;50.092;9.182;2024-01-30T01:08:36;152651.31;;;2.33;100.00
38852;BME280;24605;50.092;9.182;2024-01-30T01:11:03;152678.50;;;2.44;100.00
38852;BME280;24605;50.092;9.182;2024-01-30T01:13:30;152714.78;;;2.58;100.00
38852;BME280;24605;50.092;9.182;2024-01-30T01:15:57;152723.84;;;2.62;100.00
38852;BME280;24605;50.092;9.182;2024-01-30T01:18:24;152722.56;;;2.61;100.00
38852;BME280;24605;50.092;9.182;2024-01-30T01:20:50;152675.91;;;2.43;100.00
38852;BME280;24605;50.092;9.182;2024-01-30T01:23:17;152646.13;;;2.31;100.00
38852;BME280;24605;50.092;9.182;2024-01-30T01:25:44;152618.94;;;2.20;100.00
38852;BME280;24605;50.092;9.182;2024-01-30T01:28:10;152587.84;;;2.08;100.00
38852;BME280;24605;50.092;9.182;2024-01-30T01:30:37;152554.13;;;1.94;100.00
38852;BME280;24605;50.092;9.182;2024-01-30T01:33:05;152533.41;;;1.86;100.00
38852;BME280;24605;50.092;9.182;2024-01-30T01:35:32;152545.06;;;1.91;100.00
38852;BME280;24605;50.092;9.182;2024-01-30T01:37:59;152504.97;;;1.75;100.00
38852;BME280;24605;50.092;9.182;2024-01-30T01:40:26;152559.31;;;1.96;100.00
38852;BME280;24605;50.092;9.182;2024-01-30T01:42:54;152580.06;;;2.04;100.00
38852;BME280;24605;50.092;9.182;2024-01-30T01:45:21;152569.72;;;2.00;100.00
38852;BME280;24605;50.092;9.182;2024-01-30T01:47:50;152554.13;;;1.94;100.00
38852;BME280;24605;50.092;9.182;2024-01-30T01:50:20;152546.41;;;1.91;100.00
38852;BME280;24605;50.092;9.182;2024-01-30T01:52:47;152537.34;;;1.87;100.00
38852;BME280;24605;50.092;9.182;2024-01-30T01:55:15;152539.94;;;1.88;100.00
38852;BME280;24605;50.092;9.182;2024-01-30T01:57:42;152492.00;;;1.69;100.00
38852;BME280;24605;50.092;9.182;2024-01-30T02:00:10;152549.00;;;1.92;100.00
38852;BME280;24605;50.092;9.182;2024-01-30T02:02:39;152543.81;;;1.90;100.00
38852;BME280;24605;50.092;9.182;2024-01-30T02:05:06;152511.44;;;1.77;100.00
38852;BME280;24605;50.092;9.182;2024-01-30T02:07:34;152556.72;;;1.95;100.00
38852;BME280;24605;50.092;9.182;2024-01-30T02:10:00;152490.72;;;1.69;100.00
38852;BME280;24605;50.092;9.182;2024-01-30T02:12:28;152514.03;;;1.78;100.00
38852;BME280;24605;50.092;9.182;2024-01-30T02:14:55;152495.91;;;1.71;100.00
38852;BME280;24605;50.092;9.182;2024-01-30T02:17:21;152476.47;;;1.63;100.00
38852;BME280;24605;50.092;9.182;2024-01-30T02:19:48;152445.38;;;1.51;100.00
38852;BME280;24605;50.092;9.182;2024-01-30T02:22:16;152435.03;;;1.47;100.00
38852;BME280;24605;50.092;9.182;2024-01-30T02:24:43;152530.88;;;1.85;100.00
38852;BME280;24605;50.092;9.182;2024-01-30T02:27:09;152512.72;;;1.78;100.00
38852;BME280;24605;50.092;9.182;2024-01-30T02:29:36;152481.66;;;1.65;100.00
38852;BME280;24605;50.092;9.182;2024-01-30T02:32:03;152470.00;;;1.61;100.00
38852;BME280;24605;50.092;9.182;2024-01-30T02:34:29;152442.84;;;1.50;100.00
38852;BME280;24605;50.092;9.182;2024-01-30T02:36:56;152428.59;;;1.44;100.00
38852;BME280;24605;50.092;9.182;2024-01-30T02:39:24;152445.38;;;1.51;100.00
38852;BME280;24605;50.092;9.182;2024-01-30T02:41:51;152401.38;;;1.33;100.00
38852;BME280;24605;50.092;9.182;2024-01-30T02:44:17;152433.72;;;1.46;100.00
38852;BME280;24605;50.092;9.182;2024-01-30T02:46:44;152442.84;;;1.50;100.00
38852;BME280;24605;50.092;9.182;2024-01-30T02:49:10;152442.84;;;1.50;100.00
38852;BME280;24605;50.092;9.182;2024-01-30T02:51:37;152479.06;;;1.64;100.00
38852;BME280;24605;50.092;9.182;2024-01-30T02:54:04;152481.66;;;1.65;100.00
38852;BME280;24605;50.092;9.182;2024-01-30T02:56:32;152492.00;;;1.69;100.00
38852;BME280;24605;50.092;9.182;2024-01-30T02:58:58;152442.84;;;1.50;100.00
38852;BME280;24605;50.092;9.182;2024-01-30T03:01:25;152433.72;;;1.46;100.00
38852;BME280;24605;50.092;9.182;2024-01-30T03:03:51;152401.38;;;1.33;100.00
38852;BME280;24605;50.092;9.182;2024-01-30T03:06:18;152379.38;;;1.24;100.00
38852;BME280;24605;50.092;9.182;2024-01-30T03:08:45;152403.97;;;1.34;100.00
38852;BME280;24605;50.092;9.182;2024-01-30T03:11:11;152409.16;;;1.36;100.00
38852;BME280;24605;50.092;9.182;2024-01-30T03:13:39;152407.88;;;1.36;100.00
38852;BME280;24605;50.092;9.182;2024-01-30T03:16:06;152397.50;;;1.32;100.00
38852;BME280;24605;50.092;9.182;2024-01-30T03:18:34;152361.28;;;1.17;100.00
38852;BME280;24605;50.092;9.182;2024-01-30T03:21:00;152340.56;;;1.09;100.00
38852;BME280;24605;50.092;9.182;2024-01-30T03:23:27;152371.59;;;1.21;100.00
38852;BME280;24605;50.092;9.182;2024-01-30T03:25:54;152374.19;;;1.22;100.00
38852;BME280;24605;50.092;9.182;2024-01-30T03:28:21;152362.53;;;1.18;100.00
38852;BME280;24605;50.092;9.182;2024-01-30T03:30:48;152350.91;;;1.13;100.00
38852;BME280;24605;50.092;9.182;2024-01-30T03:33:15;152347.03;;;1.12;100.00
38852;BME280;24605;50.092;9.182;2024-01-30T03:35:41;152331.50;;;1.05;100.00
38852;BME280;24605;50.092;9.182;2024-01-30T03:38:08;152315.94;;;0.99;100.00
38852;BME280;24605;50.092;9.182;2024-01-30T03:40:34;152306.91;;;0.96;100.00
38852;BME280;24605;50.092;9.182;2024-01-30T03:43:01;152310.75;;;0.97;100.00
38852;BME280;24605;50.092;9.182;2024-01-30T03:45:27;152306.91;;;0.96;100.00
38852;BME280;24605;50.092;9.182;2024-01-30T03:47:55;152296.56;;;0.91;100.00
38852;BME280;24605;50.092;9.182;2024-01-30T03:50:22;152286.19;;;0.87;100.00
38852;BME280;24605;50.092;9.182;2024-01-30T03:52:48;152290.06;;;0.89;100.00
38852;BME280;24605;50.092;9.182;2024-01-30T03:55:14;152284.91;;;0.87;100.00
38852;BME280;24605;50.092;9.182;2024-01-30T03:57:41;152293.97;;;0.90;100.00
38852;BME280;24605;50.092;9.182;2024-01-30T04:00:08;152301.72;;;0.93;100.00
38852;BME280;24605;50.092;9.182;2024-01-30T04:02:35;152308.22;;;0.96;100.00
38852;BME280;24605;50.092;9.182;2024-01-30T04:05:03;152359.94;;;1.17;100.00
38852;BME280;24605;50.092;9.182;2024-01-30T04:07:29;152334.06;;;1.06;100.00
38852;BME280;24605;50.092;9.182;2024-01-30T04:09:56;152340.56;;;1.09;100.00
38852;BME280;24605;50.092;9.182;2024-01-30T04:12:22;152331.50;;;1.05;100.00
38852;BME280;24605;50.092;9.182;2024-01-30T04:14:49;152321.13;;;1.01;100.00
38852;BME280;24605;50.092;9.182;2024-01-30T04:17:16;152312.09;;;0.98;100.00
38852;BME280;24605;50.092;9.182;2024-01-30T04:19:42;152301.72;;;0.93;100.00
38852;BME280;24605;50.092;9.182;2024-01-30T04:22:10;152306.91;;;0.96;100.00
38852;BME280;24605;50.092;9.182;2024-01-30T04:24:37;152322.41;;;1.02;100.00
38852;BME280;24605;50.092;9.182;2024-01-30T04:27:04;152334.06;;;1.06;100.00
38852;BME280;24605;50.092;9.182;2024-01-30T04:29:30;152336.66;;;1.07;100.00
38852;BME280;24605;50.092;9.182;2024-01-30T04:31:57;152337.97;;;1.08;100.00
38852;BME280;24605;50.092;9.182;2024-01-30T04:34:24;152336.66;;;1.07;100.00
38852;BME280;24605;50.092;9.182;2024-01-30T04:36:50;152375.50;;;1.23;100.00
38852;BME280;24605;50.092;9.182;2024-01-30T04:39:18;152359.94;;;1.17;100.00
38852;BME280;24605;50.092;9.182;2024-01-30T04:41:44;152357.34;;;1.16;100.00
38852;BME280;24605;50.092;9.182;2024-01-30T04:44:11;152365.13;;;1.19;100.00
38852;BME280;24605;50.092;9.182;2024-01-30T04:46:37;152361.28;;;1.17;100.00
38852;BME280;24605;50.092;9.182;2024-01-30T04:49:04;152352.22;;;1.14;100.00
38852;BME280;24605;50.092;9.182;2024-01-30T04:51:32;152367.72;;;1.20;100.00
38852;BME280;24605;50.092;9.182;2024-01-30T04:53:59;152344.44;;;1.11;100.00
38852;BME280;24605;50.092;9.182;2024-01-30T04:56:27;152326.31;;;1.03;100.00
38852;BME280;24605;50.092;9.182;2024-01-30T04:58:53;152341.84;;;1.09;100.00
38852;BME280;24605;50.092;9.182;2024-01-30T05:01:20;152310.75;;;0.97;100.00
38852;BME280;24605;50.092;9.182;2024-01-30T05:03:46;152313.34;;;0.98;100.00
38852;BME280;24605;50.092;9.182;2024-01-30T05:06:13;152297.84;;;0.92;100.00
38852;BME280;24605;50.092;9.182;2024-01-30T05:08:39;152299.16;;;0.92;100.00
38852;BME280;24605;50.092;9.182;2024-01-30T05:11:06;152292.66;;;0.90;100.00
38852;BME280;24605;50.092;9.182;2024-01-30T05:13:33;152345.72;;;1.11;100.00
38852;BME280;24605;50.092;9.182;2024-01-30T05:16:01;152379.38;;;1.24;100.00
38852;BME280;24605;50.092;9.182;2024-01-30T05:18:28;152389.72;;;1.29;100.00
38852;BME280;24605;50.092;9.182;2024-01-30T05:20:55;152391.03;;;1.29;100.00
38852;BME280;24605;50.092;9.182;2024-01-30T05:23:21;152393.63;;;1.30;100.00
38852;BME280;24605;50.092;9.182;2024-01-30T05:25:48;152391.03;;;1.29;100.00
38852;BME280;24605;50.092;9.182;2024-01-30T05:28:17;152383.25;;;1.26;100.00
38852;BME280;24605;50.092;9.182;2024-01-30T05:30:44;152371.59;;;1.21;100.00
38852;BME280;24605;50.092;9.182;2024-01-30T05:33:11;152398.81;;;1.32;100.00
38852;BME280;24605;50.092;9.182;2024-01-30T05:35:38;152409.16;;;1.36;100.00
38852;BME280;24605;50.092;9.182;2024-01-30T05:38:05;152409.16;;;1.36;100.00
38852;BME280;24605;50.092;9.182;2024-01-30T05:40:31;152423.41;;;1.42;100.00
38852;BME280;24605;50.092;9.182;2024-01-30T05:42:58;152419.53;;;1.40;100.00
38852;BME280;24605;50.092;9.182;2024-01-30T05:45:26;152470.00;;;1.61;100.00
38852;BME280;24605;50.092;9.182;2024-01-30T05:47:54;152485.53;;;1.67;100.00
38852;BME280;24605;50.092;9.182;2024-01-30T05:50:20;152492.00;;;1.69;100.00
38852;BME280;24605;50.092;9.182;2024-01-30T05:52:48;152495.91;;;1.71;100.00
38852;BME280;24605;50.092;9.182;2024-01-30T05:55:15;152494.59;;;1.70;100.00
38852;BME280;24605;50.092;9.182;2024-01-30T05:57:41;152514.03;;;1.78;100.00
38852;BME280;24605;50.092;9.182;2024-01-30T06:00:08;152512.72;;;1.78;100.00
38852;BME280;24605;50.092;9.182;2024-01-30T06:02:35;152521.75;;;1.81;100.00
38852;BME280;24605;50.092;9.182;2024-01-30T06:05:04;152510.09;;;1.77;100.00
38852;BME280;24605;50.092;9.182;2024-01-30T06:07:31;152490.72;;;1.69;100.00
38852;BME280;24605;50.092;9.182;2024-01-30T06:09:57;152482.94;;;1.66;100.00
38852;BME280;24605;50.092;9.182;2024-01-30T06:12:27;152494.59;;;1.70;100.00
38852;BME280;24605;50.092;9.182;2024-01-30T06:14:53;152519.22;;;1.80;100.00
38852;BME280;24605;50.092;9.182;2024-01-30T06:17:22;152532.16;;;1.85;100.00
38852;BME280;24605;50.092;9.182;2024-01-30T06:19:48;152507.56;;;1.76;100.00
38852;BME280;24605;50.092;9.182;2024-01-30T06:22:16;152512.72;;;1.78;100.00
38852;BME280;24605;50.092;9.182;2024-01-30T06:24:43;152493.31;;;1.70;100.00
38852;BME280;24605;50.092;9.182;2024-01-30T06:27:13;152501.06;;;1.73;100.00
38852;BME280;24605;50.092;9.182;2024-01-30T06:29:40;152485.53;;;1.67;100.00
38852;BME280;24605;50.092;9.182;2024-01-30T06:32:06;152494.59;;;1.70;100.00
38852;BME280;24605;50.092;9.182;2024-01-30T06:34:33;152479.06;;;1.64;100.00
38852;BME280;24605;50.092;9.182;2024-01-30T06:36:59;152503.66;;;1.74;100.00
38852;BME280;24605;50.092;9.182;2024-01-30T06:39:27;152519.22;;;1.80;100.00
38852;BME280;24605;50.092;9.182;2024-01-30T06:41:54;152517.91;;;1.80;100.00
38852;BME280;24605;50.092;9.182;2024-01-30T06:44:20;152541.22;;;1.89;100.00
38852;BME280;24605;50.092;9.182;2024-01-30T06:46:46;152554.13;;;1.94;100.00
38852;BME280;24605;50.092;9.182;2024-01-30T06:49:13;152552.88;;;1.94;100.00
38852;BME280;24605;50.092;9.182;2024-01-30T06:51:39;152572.31;;;2.01;100.00
38852;BME280;24605;50.092;9.182;2024-01-30T06:54:06;152574.91;;;2.02;100.00
38852;BME280;24605;50.092;9.182;2024-01-30T06:56:34;152545.06;;;1.91;100.00
38852;BME280;24605;50.092;9.182;2024-01-30T06:59:00;152533.41;;;1.86;100.00
38852;BME280;24605;50.092;9.182;2024-01-30T07:01:27;152545.06;;;1.91;100.00
38852;BME280;24605;50.092;9.182;2024-01-30T07:03:54;152554.13;;;1.94;100.00
38852;BME280;24605;50.092;9.182;2024-01-30T07:06:21;152556.72;;;1.95;100.00
38852;BME280;24605;50.092;9.182;2024-01-30T07:08:48;152555.47;;;1.95;100.00
38852;BME280;24605;50.092;9.182;2024-01-30T07:11:18;152561.91;;;1.97;100.00
38852;BME280;24605;50.092;9.182;2024-01-30T07:13:46;152561.91;;;1.97;100.00
38852;BME280;24605;50.092;9.182;2024-01-30T07:16:13;152559.31;;;1.96;100.00
38852;BME280;24605;50.092;9.182;2024-01-30T07:18:39;152555.47;;;1.95;100.00
38852;BME280;24605;50.092;9.182;2024-01-30T07:21:06;152555.47;;;1.95;100.00
38852;BME280;24605;50.092;9.182;2024-01-30T07:23:32;152596.91;;;2.11;100.00
38852;BME280;24605;50.092;9.182;2024-01-30T07:25:59;152631.88;;;2.25;100.00
38852;BME280;24605;50.092;9.182;2024-01-30T07:28:26;152629.28;;;2.24;100.00
38852;BME280;24605;50.092;9.182;2024-01-30T07:30:54;152648.72;;;2.32;100.00
38852;BME280;24605;50.092;9.182;2024-01-30T07:33:21;152665.53;;;2.39;100.00
38852;BME280;24605;50.092;9.182;2024-01-30T07:35:47;152674.66;;;2.42;100.00
38852;BME280;24605;50.092;9.182;2024-01-30T07:38:14;152638.34;;;2.28;100.00
38852;BME280;24605;50.092;9.182;2024-01-30T07:40:40;152703.13;;;2.54;100.00
38852;BME280;24605;50.092;9.182;2024-01-30T07:43:07;152721.25;;;2.61;100.00
38852;BME280;24605;50.092;9.182;2024-01-30T07:45:33;152710.91;;;2.57;100.00
38852;BME280;24605;50.092;9.182;2024-01-30T07:48:01;152732.91;;;2.65;100.00
38852;BME280;24605;50.092;9.182;2024-01-30T07:50:28;152748.50;;;2.72;100.00
38852;BME280;24605;50.092;9.182;2024-01-30T07:52:56;152769.22;;;2.80;100.00
38852;BME280;24605;50.092;9.182;2024-01-30T07:55:22;152779.56;;;2.84;100.00
38852;BME280;24605;50.092;9.182;2024-01-30T07:57:50;152817.16;;;2.99;100.00
38852;BME280;24605;50.092;9.182;2024-01-30T08:00:17;152830.09;;;3.04;100.00
38852;BME280;24605;50.092;9.182;2024-01-30T08:02:46;152848.28;;;3.11;100.00
38852;BME280;24605;50.092;9.182;2024-01-30T08:05:14;152863.81;;;3.18;100.00
38852;BME280;24605;50.092;9.182;2024-01-30T08:07:41;152888.44;;;3.27;100.00
38852;BME280;24605;50.092;9.182;2024-01-30T08:10:08;152902.72;;;3.33;100.00
38852;BME280;24605;50.092;9.182;2024-01-30T08:12:35;152932.53;;;3.45;100.00
38852;BME280;24605;50.092;9.182;2024-01-30T08:15:02;152966.25;;;3.58;100.00
38852;BME280;24605;50.092;9.182;2024-01-30T08:17:28;153019.44;;;3.80;100.00
38852;BME280;24605;50.092;9.182;2024-01-30T08:19:55;153033.69;;;3.85;100.00
38852;BME280;24605;50.092;9.182;2024-01-30T08:22:23;153051.84;;;3.92;100.00
38852;BME280;24605;50.092;9.182;2024-01-30T08:24:49;153081.69;;;4.04;100.00
38852;BME280;24605;50.092;9.182;2024-01-30T08:27:16;153115.44;;;4.18;100.00
38852;BME280;24605;50.092;9.182;2024-01-30T08:29:42;153134.84;;;4.26;100.00
38852;BME280;24605;50.092;9.182;2024-01-30T08:32:09;153180.31;;;4.44;100.00
38852;BME280;24605;50.092;9.182;2024-01-30T08:34:36;153230.91;;;4.64;100.00
38852;BME280;24605;50.092;9.182;2024-01-30T08:37:03;153269.81;;;4.79;100.00
38852;BME280;24605;50.092;9.182;2024-01-30T08:39:30;153324.38;;;5.01;100.00
38852;BME280;24605;50.092;9.182;2024-01-30T08:41:57;153301.00;;;4.92;100.00
38852;BME280;24605;50.092;9.182;2024-01-30T08:44:24;153329.53;;;5.03;100.00
38852;BME280;24605;50.092;9.182;2024-01-30T08:46:50;153345.13;;;5.09;100.00
38852;BME280;24605;50.092;9.182;2024-01-30T08:49:16;153350.28;;;5.11;100.00
38852;BME280;24605;50.092;9.182;2024-01-30T08:51:42;153374.97;;;5.21;100.00
38852;BME280;24605;50.092;9.182;2024-01-30T08:54:09;153433.41;;;5.44;100.00
38852;BME280;24605;50.092;9.182;2024-01-30T08:56:37;153459.41;;;5.55;100.00
38852;BME280;24605;50.092;9.182;2024-01-30T08:59:03;153486.66;;;5.65;100.00
38852;BME280;24605;50.092;9.182;2024-01-30T09:01:30;153521.72;;;5.79;100.00
38852;BME280;24605;50.092;9.182;2024-01-30T09:03:56;153569.78;;;5.99;100.00
38852;BME280;24605;50.092;9.182;2024-01-30T09:06:23;153606.19;;;6.13;100.00
38852;BME280;24605;50.092;9.182;2024-01-30T09:08:51;153634.78;;;6.24;100.00
38852;BME280;24605;50.092;9.182;2024-01-30T09:11:18;153652.97;;;6.32;100.00
38852;BME280;24605;50.092;9.182;2024-01-30T09:13:45;153699.75;;;6.50;100.00
38852;BME280;24605;50.092;9.182;2024-01-30T09:16:12;153695.88;;;6.49;100.00
38852;BME280;24605;50.092;9.182;2024-01-30T09:18:39;153719.28;;;6.58;100.00
38852;BME280;24605;50.092;9.182;2024-01-30T09:21:05;153758.25;;;6.73;100.00
38852;BME280;24605;50.092;9.182;2024-01-30T09:23:32;153780.38;;;6.82;100.00
38852;BME280;24605;50.092;9.182;2024-01-30T09:25:59;153788.16;;;6.85;100.00
38852;BME280;24605;50.092;9.182;2024-01-30T09:28:25;153812.88;;;6.95;100.00
38852;BME280;24605;50.092;9.182;2024-01-30T09:30:53;153832.34;;;7.03;100.00
38852;BME280;24605;50.092;9.182;2024-01-30T09:33:20;153851.88;;;7.11;100.00
38852;BME280;24605;50.092;9.182;2024-01-30T09:35:46;153886.97;;;7.25;100.00
38852;BME280;24605;50.092;9.182;2024-01-30T09:38:11;153788.16;;;6.85;100.00
38852;BME280;24605;50.092;9.182;2024-01-30T09:40:38;153920.78;;;7.38;100.00
38852;BME280;24605;50.092;9.182;2024-01-30T09:43:04;153940.28;;;7.46;100.00
38852;BME280;24605;50.092;9.182;2024-01-30T09:45:32;153941.56;;;7.46;100.00
38852;BME280;24605;50.092;9.182;2024-01-30T09:48:01;153919.50;;;7.37;100.00
38852;BME280;24605;50.092;9.182;2024-01-30T09:50:28;153979.31;;;7.61;100.00
38852;BME280;24605;50.092;9.182;2024-01-30T09:52:55;154004.06;;;7.71;100.00
38852;BME280;24605;50.092;9.182;2024-01-30T09:55:22;154033.97;;;7.83;100.00
38852;BME280;24605;50.092;9.182;2024-01-30T09:57:49;154085.97;;;8.04;100.00
38852;BME280;24605;50.092;9.182;2024-01-30T10:00:16;154062.53;;;7.94;100.00
38852;BME280;24605;50.092;9.182;2024-01-30T10:02:42;154079.47;;;8.01;100.00
38852;BME280;24605;50.092;9.182;2024-01-30T10:05:15;154018.31;;;7.77;100.00
38852;BME280;24605;50.092;9.182;2024-01-30T10:07:56;154078.19;;;8.00;100.00
38852;BME280;24605;50.092;9.182;2024-01-30T10:10:24;154101.63;;;8.10;100.00
38852;BME280;24605;50.092;9.182;2024-01-30T10:12:50;154125.03;;;8.19;100.00
38852;BME280;24605;50.092;9.182;2024-01-30T10:15:17;154117.22;;;8.16;99.35
38852;BME280;24605;50.092;9.182;2024-01-30T10:17:44;154158.84;;;8.32;99.59
38852;BME280;24605;50.092;9.182;2024-01-30T10:20:12;154136.75;;;8.24;99.93
38852;BME280;24605;50.092;9.182;2024-01-30T10:22:39;154177.06;;;8.40;99.05
38852;BME280;24605;50.092;9.182;2024-01-30T10:25:06;154149.75;;;8.29;98.76
38852;BME280;24605;50.092;9.182;2024-01-30T10:27:33;154171.84;;;8.38;97.93
38852;BME280;24605;50.092;9.182;2024-01-30T10:29:59;154203.16;;;8.50;97.90
38852;BME280;24605;50.092;9.182;2024-01-30T10:32:27;154230.47;;;8.61;98.01
38852;BME280;24605;50.092;9.182;2024-01-30T10:34:53;154239.56;;;8.65;96.06
38852;BME280;24605;50.092;9.182;2024-01-30T10:37:24;154255.22;;;8.71;97.24
38852;BME280;24605;50.092;9.182;2024-01-30T10:39:53;154227.84;;;8.60;96.89
38852;BME280;24605;50.092;9.182;2024-01-30T10:42:20;154250.00;;;8.69;96.77
38852;BME280;24605;50.092;9.182;2024-01-30T10:45:01;154281.28;;;8.81;95.93
38852;BME280;24605;50.092;9.182;2024-01-30T10:47:30;154261.72;;;8.73;95.70
38852;BME280;24605;50.092;9.182;2024-01-30T10:49:56;154226.59;;;8.59;96.48
38852;BME280;24605;50.092;9.182;2024-01-30T10:52:25;154294.28;;;8.86;96.00
38852;BME280;24605;50.092;9.182;2024-01-30T10:54:54;154255.22;;;8.71;96.00
38852;BME280;24605;50.092;9.182;2024-01-30T10:57:23;154317.72;;;8.96;95.70
38852;BME280;24605;50.092;9.182;2024-01-30T10:59:51;154316.38;;;8.95;94.83
38852;BME280;24605;50.092;9.182;2024-01-30T11:02:19;154281.28;;;8.81;94.96
38852;BME280;24605;50.092;9.182;2024-01-30T11:04:45;154294.28;;;8.86;95.57
38852;BME280;24605;50.092;9.182;2024-01-30T11:07:16;154338.53;;;9.04;94.49
38852;BME280;24605;50.092;9.182;2024-01-30T11:09:49;154335.94;;;9.03;93.91
38852;BME280;24605;50.092;9.182;2024-01-30T11:12:21;154337.25;;;9.03;94.17
38852;BME280;24605;50.092;9.182;2024-01-30T11:14:48;154343.75;;;9.06;94.22
38852;BME280;24605;50.092;9.182;2024-01-30T11:17:14;154316.38;;;8.95;94.40
38852;BME280;24605;50.092;9.182;2024-01-30T11:19:41;154352.88;;;9.09;93.92
38852;BME280;24605;50.092;9.182;2024-01-30T11:22:08;154401.03;;;9.29;93.40
38852;BME280;24605;50.092;9.182;2024-01-30T11:24:39;154358.09;;;9.12;93.85
38852;BME280;24605;50.092;9.182;2024-01-30T11:27:09;154283.84;;;8.82;93.34
38852;BME280;24605;50.092;9.182;2024-01-30T11:29:36;154319.00;;;8.96;94.37
38852;BME280;24605;50.092;9.182;2024-01-30T11:32:03;154389.31;;;9.24;94.25
38852;BME280;24605;50.092;9.182;2024-01-30T11:34:30;154415.38;;;9.34;93.60
38852;BME280;24605;50.092;9.182;2024-01-30T11:36:59;154423.19;;;9.37;92.86
38852;BME280;24605;50.092;9.182;2024-01-30T11:39:29;154427.09;;;9.39;93.24
38852;BME280;24605;50.092;9.182;2024-01-30T11:41:56;154460.94;;;9.52;92.22
38852;BME280;24605;50.092;9.182;2024-01-30T11:44:25;154408.88;;;9.32;93.57
38852;BME280;24605;50.092;9.182;2024-01-30T11:46:52;154472.66;;;9.57;92.92
38852;BME280;24605;50.092;9.182;2024-01-30T11:49:19;154492.22;;;9.65;92.01
38852;BME280;24605;50.092;9.182;2024-01-30T11:51:45;154470.09;;;9.56;92.05
38852;BME280;24605;50.092;9.182;2024-01-30T11:54:14;154524.78;;;9.78;92.35
38852;BME280;24605;50.092;9.182;2024-01-30T11:56:40;154485.72;;;9.62;91.80
38852;BME280;24605;50.092;9.182;2024-01-30T11:59:07;154460.94;;;9.52;92.11
38852;BME280;24605;50.092;9.182;2024-01-30T12:01:35;154489.59;;;9.64;93.05
38852;BME280;24605;50.092;9.182;2024-01-30T12:04:01;154531.28;;;9.80;91.92
38852;BME280;24605;50.092;9.182;2024-01-30T12:06:28;154531.28;;;9.80;91.21
38852;BME280;24605;50.092;9.182;2024-01-30T12:08:57;154541.72;;;9.84;91.43
38852;BME280;24605;50.092;9.182;2024-01-30T12:11:24;154562.56;;;9.93;90.48
38852;BME280;24605;50.092;9.182;2024-01-30T12:13:51;154571.69;;;9.96;90.44
38852;BME280;24605;50.092;9.182;2024-01-30T12:16:17;154621.22;;;10.16;89.53
38852;BME280;24605;50.092;9.182;2024-01-30T12:18:45;154659.03;;;10.31;89.73
38852;BME280;24605;50.092;9.182;2024-01-30T12:21:12;154662.91;;;10.32;89.14
38852;BME280;24605;50.092;9.182;2024-01-30T12:23:39;154687.72;;;10.42;88.72
38852;BME280;24605;50.092;9.182;2024-01-30T12:26:06;154660.31;;;10.31;89.07
38852;BME280;24605;50.092;9.182;2024-01-30T12:28:32;154726.84;;;10.58;87.76
38852;BME280;24605;50.092;9.182;2024-01-30T12:31:01;154716.41;;;10.54;88.57
38852;BME280;24605;50.092;9.182;2024-01-30T12:33:29;154734.63;;;10.61;87.98
38852;BME280;24605;50.092;9.182;2024-01-30T12:35:57;154721.63;;;10.56;88.02
38852;BME280;24605;50.092;9.182;2024-01-30T12:38:27;154724.25;;;10.57;87.75
38852;BME280;24605;50.092;9.182;2024-01-30T12:40:54;154743.75;;;10.64;87.67
38852;BME280;24605;50.092;9.182;2024-01-30T12:43:21;154750.25;;;10.67;87.45
38852;BME280;24605;50.092;9.182;2024-01-30T12:45:48;154741.16;;;10.63;87.94
38852;BME280;24605;50.092;9.182;2024-01-30T12:48:14;154762.00;;;10.72;87.53
38852;BME280;24605;50.092;9.182;2024-01-30T12:50:41;154735.97;;;10.61;88.25